<?xml version="1.0" encoding="UTF-8" standalone="no" ?><gpx xmlns="http://www.topografix.com/GPX/1/1" xmlns:gpxx="http://www.garmin.com/xmlschemas/GpxExtensions/v3" xmlns:wptx1="http://www.garmin.com/xmlschemas/WaypointExtension/v1" xmlns:gpxtpx="http://www.garmin.com/xmlschemas/TrackPointExtension/v1" creator="GuideVTT.com" version="1.1" xmlns:xsi="http://www.w3.org/2001/XMLSchema-instance" xsi:schemaLocation="http://www.topografix.com/GPX/1/1 http://www.topografix.com/GPX/1/1/gpx.xsd http://www.garmin.com/xmlschemas/GpxExtensions/v3 http://www8.garmin.com/xmlschemas/GpxExtensionsv3.xsd http://www.garmin.com/xmlschemas/WaypointExtension/v1 http://www8.garmin.com/xmlschemas/WaypointExtensionv1.xsd http://www.garmin.com/xmlschemas/TrackPointExtension/v1 http://www.garmin.com/xmlschemas/TrackPointExtensionv1.xsd">
<metadata><link href="http://www.garmin.com"><text>Garmin International</text></link><time>2013-06-22T15:13:50Z</time></metadata>
<trk><name>piste_chaudfontaine_2013.gpx</name><extensions><gpxx:TrackExtension><gpxx:DisplayColor>Cyan</gpxx:DisplayColor></gpxx:TrackExtension></extensions><trkseg>
<trkpt lat="50.591313131153584" lon="5.640035290271044"><ele></ele><time>2013-8-7T23:52:4Z</time></trkpt>
<trkpt lat="50.591312879696488" lon="5.640033278614283"><ele></ele><time>2013-8-7T23:52:7Z</time></trkpt>
<trkpt lat="50.591313382610679" lon="5.640033530071378"><ele></ele><time>2013-8-7T23:52:10Z</time></trkpt>
<trkpt lat="50.591312879696488" lon="5.640033362433314"><ele></ele><time>2013-8-7T23:52:13Z</time></trkpt>
<trkpt lat="50.591311454772949" lon="5.640016347169876"><ele></ele><time>2013-8-7T23:52:16Z</time></trkpt>
<trkpt lat="50.59131195768714" lon="5.639999667182565"><ele></ele><time>2013-8-7T23:52:19Z</time></trkpt>
<trkpt lat="50.59131883084774" lon="5.639965552836657"><ele></ele><time>2013-8-7T23:52:22Z</time></trkpt>
<trkpt lat="50.591314975172281" lon="5.639889696612954"><ele></ele><time>2013-8-7T23:52:25Z</time></trkpt>
<trkpt lat="50.591319752857089" lon="5.639877961948514"><ele></ele><time>2013-8-7T23:52:28Z</time></trkpt>
<trkpt lat="50.591319752857089" lon="5.639877961948514"><ele></ele><time>2013-8-7T23:52:31Z</time></trkpt>
<trkpt lat="50.591319752857089" lon="5.639877961948514"><ele></ele><time>2013-8-7T23:52:34Z</time></trkpt>
<trkpt lat="50.591319752857089" lon="5.639877961948514"><ele></ele><time>2013-8-7T23:52:37Z</time></trkpt>
<trkpt lat="50.591319752857089" lon="5.639877961948514"><ele></ele><time>2013-8-7T23:52:40Z</time></trkpt>
<trkpt lat="50.591326877474785" lon="5.639859857037663"><ele></ele><time>2013-8-7T23:52:43Z</time></trkpt>
<trkpt lat="50.591326877474785" lon="5.639859857037663"><ele></ele><time>2013-8-7T23:52:46Z</time></trkpt>
<trkpt lat="50.591326877474785" lon="5.639859857037663"><ele></ele><time>2013-8-7T23:52:49Z</time></trkpt>
<trkpt lat="50.591326877474785" lon="5.639859857037663"><ele></ele><time>2013-8-7T23:52:52Z</time></trkpt>
<trkpt lat="50.591326877474785" lon="5.639859857037663"><ele></ele><time>2013-8-7T23:52:55Z</time></trkpt>
<trkpt lat="50.591326877474785" lon="5.639859857037663"><ele></ele><time>2013-8-7T23:52:58Z</time></trkpt>
<trkpt lat="50.591326877474785" lon="5.639859857037663"><ele></ele><time>2013-8-7T23:53:1Z</time></trkpt>
<trkpt lat="50.591326877474785" lon="5.639859857037663"><ele></ele><time>2013-8-7T23:53:4Z</time></trkpt>
<trkpt lat="50.591326877474785" lon="5.639859857037663"><ele></ele><time>2013-8-7T23:53:7Z</time></trkpt>
<trkpt lat="50.591326877474785" lon="5.639859857037663"><ele></ele><time>2013-8-7T23:53:10Z</time></trkpt>
<trkpt lat="50.591326877474785" lon="5.639859857037663"><ele></ele><time>2013-8-7T23:53:13Z</time></trkpt>
<trkpt lat="50.591316064819694" lon="5.639824066311121"><ele></ele><time>2013-8-7T23:53:16Z</time></trkpt>
<trkpt lat="50.591316064819694" lon="5.639824066311121"><ele></ele><time>2013-8-7T23:53:19Z</time></trkpt>
<trkpt lat="50.591396782547235" lon="5.639801686629653"><ele></ele><time>2013-8-7T23:53:22Z</time></trkpt>
<trkpt lat="50.591396782547235" lon="5.639801686629653"><ele></ele><time>2013-8-7T23:53:25Z</time></trkpt>
<trkpt lat="50.591448498889804" lon="5.639588618651032"><ele></ele><time>2013-8-7T23:53:28Z</time></trkpt>
<trkpt lat="50.591440703719854" lon="5.639423998072743"><ele></ele><time>2013-8-7T23:53:31Z</time></trkpt>
<trkpt lat="50.591428214684129" lon="5.639376975595951"><ele></ele><time>2013-8-7T23:53:34Z</time></trkpt>
<trkpt lat="50.591356968507171" lon="5.639099702239037"><ele></ele><time>2013-8-7T23:53:37Z</time></trkpt>
<trkpt lat="50.591311370953918" lon="5.63894254155457"><ele></ele><time>2013-8-7T23:53:40Z</time></trkpt>
<trkpt lat="50.591295529156923" lon="5.63887557014823"><ele></ele><time>2013-8-7T23:53:43Z</time></trkpt>
<trkpt lat="50.591240040957928" lon="5.63880524598062"><ele></ele><time>2013-8-7T23:53:46Z</time></trkpt>
<trkpt lat="50.591228473931551" lon="5.638791415840387"><ele></ele><time>2013-8-7T23:53:49Z</time></trkpt>
<trkpt lat="50.591219421476126" lon="5.638781106099486"><ele></ele><time>2013-8-7T23:53:52Z</time></trkpt>
<trkpt lat="50.591206010431051" lon="5.638771802186966"><ele></ele><time>2013-8-7T23:53:55Z</time></trkpt>
<trkpt lat="50.591195868328214" lon="5.638765515759587"><ele></ele><time>2013-8-7T23:53:58Z</time></trkpt>
<trkpt lat="50.591160748153925" lon="5.638734837993979"><ele></ele><time>2013-8-7T23:54:1Z</time></trkpt>
<trkpt lat="50.591096878051758" lon="5.638722768053412"><ele></ele><time>2013-8-7T23:54:4Z</time></trkpt>
<trkpt lat="50.591026470065117" lon="5.638725031167269"><ele></ele><time>2013-8-7T23:54:7Z</time></trkpt>
<trkpt lat="50.590934688225389" lon="5.638744728639722"><ele></ele><time>2013-8-7T23:54:10Z</time></trkpt>
<trkpt lat="50.590855730697513" lon="5.638756128028035"><ele></ele><time>2013-8-7T23:54:13Z</time></trkpt>
<trkpt lat="50.590840727090836" lon="5.638755625113845"><ele></ele><time>2013-8-7T23:54:16Z</time></trkpt>
<trkpt lat="50.590843996033072" lon="5.638789152726531"><ele></ele><time>2013-8-7T23:54:19Z</time></trkpt>
<trkpt lat="50.590826310217381" lon="5.63876518048346"><ele></ele><time>2013-8-7T23:54:22Z</time></trkpt>
<trkpt lat="50.590796638280153" lon="5.6387251149863"><ele></ele><time>2013-8-7T23:54:25Z</time></trkpt>
<trkpt lat="50.590756321325898" lon="5.638652611523867"><ele></ele><time>2013-8-7T23:54:28Z</time></trkpt>
<trkpt lat="50.590740563347936" lon="5.638643391430378"><ele></ele><time>2013-8-7T23:54:31Z</time></trkpt>
<trkpt lat="50.590739557519555" lon="5.6386439781636"><ele></ele><time>2013-8-7T23:54:34Z</time></trkpt>
<trkpt lat="50.590739892795682" lon="5.638641715049744"><ele></ele><time>2013-8-7T23:54:37Z</time></trkpt>
<trkpt lat="50.590735198929906" lon="5.63863224349916"><ele></ele><time>2013-8-7T23:54:40Z</time></trkpt>
<trkpt lat="50.590733690187335" lon="5.638625789433718"><ele></ele><time>2013-8-7T23:54:43Z</time></trkpt>
<trkpt lat="50.590720614418387" lon="5.638606678694487"><ele></ele><time>2013-8-7T23:54:46Z</time></trkpt>
<trkpt lat="50.590672753751278" lon="5.638521434739232"><ele></ele><time>2013-8-7T23:54:49Z</time></trkpt>
<trkpt lat="50.590660097077489" lon="5.638500647619367"><ele></ele><time>2013-8-7T23:54:52Z</time></trkpt>
<trkpt lat="50.590643836185336" lon="5.638474244624376"><ele></ele><time>2013-8-7T23:54:55Z</time></trkpt>
<trkpt lat="50.590631682425737" lon="5.638455888256431"><ele></ele><time>2013-8-7T23:54:58Z</time></trkpt>
<trkpt lat="50.590624557808042" lon="5.638449350371957"><ele></ele><time>2013-8-7T23:55:1Z</time></trkpt>
<trkpt lat="50.590617097914219" lon="5.638441471382976"><ele></ele><time>2013-8-7T23:55:4Z</time></trkpt>
<trkpt lat="50.59061030857265" lon="5.638437448069453"><ele></ele><time>2013-8-7T23:55:7Z</time></trkpt>
<trkpt lat="50.590570578351617" lon="5.638400400057435"><ele></ele><time>2013-8-7T23:55:10Z</time></trkpt>
<trkpt lat="50.590543756261468" lon="5.63835958018899"><ele></ele><time>2013-8-7T23:55:13Z</time></trkpt>
<trkpt lat="50.590543756261468" lon="5.63835958018899"><ele></ele><time>2013-8-7T23:55:16Z</time></trkpt>
<trkpt lat="50.590543756261468" lon="5.63835958018899"><ele></ele><time>2013-8-7T23:55:19Z</time></trkpt>
<trkpt lat="50.590541493147612" lon="5.638355053961277"><ele></ele><time>2013-8-7T23:55:22Z</time></trkpt>
<trkpt lat="50.590532105416059" lon="5.638341307640076"><ele></ele><time>2013-8-7T23:55:25Z</time></trkpt>
<trkpt lat="50.590525232255459" lon="5.638334099203348"><ele></ele><time>2013-8-7T23:55:28Z</time></trkpt>
<trkpt lat="50.590507797896862" lon="5.638319011777639"><ele></ele><time>2013-8-7T23:55:31Z</time></trkpt>
<trkpt lat="50.590495811775327" lon="5.638302080333233"><ele></ele><time>2013-8-7T23:55:34Z</time></trkpt>
<trkpt lat="50.590489776805043" lon="5.638284394517541"><ele></ele><time>2013-8-7T23:55:37Z</time></trkpt>
<trkpt lat="50.590470163151622" lon="5.638253213837743"><ele></ele><time>2013-8-7T23:55:40Z</time></trkpt>
<trkpt lat="50.590409897267818" lon="5.638201916590333"><ele></ele><time>2013-8-7T23:55:43Z</time></trkpt>
<trkpt lat="50.590404784306884" lon="5.638197641819715"><ele></ele><time>2013-8-7T23:55:46Z</time></trkpt>
<trkpt lat="50.590406712144613" lon="5.638196552172303"><ele></ele><time>2013-8-7T23:55:49Z</time></trkpt>
<trkpt lat="50.590405119583011" lon="5.638200156390667"><ele></ele><time>2013-8-7T23:55:52Z</time></trkpt>
<trkpt lat="50.590403275564313" lon="5.638198982924223"><ele></ele><time>2013-8-7T23:55:55Z</time></trkpt>
<trkpt lat="50.590402940288186" lon="5.638203173875809"><ele></ele><time>2013-8-7T23:55:58Z</time></trkpt>
<trkpt lat="50.590372011065483" lon="5.638202084228396"><ele></ele><time>2013-8-7T23:56:1Z</time></trkpt>
<trkpt lat="50.590309901162982" lon="5.638213651254773"><ele></ele><time>2013-8-7T23:56:4Z</time></trkpt>
<trkpt lat="50.590308727696538" lon="5.638218093663454"><ele></ele><time>2013-8-7T23:56:7Z</time></trkpt>
<trkpt lat="50.59027997776866" lon="5.638248436152935"><ele></ele><time>2013-8-7T23:56:10Z</time></trkpt>
<trkpt lat="50.590275283902884" lon="5.638246927410364"><ele></ele><time>2013-8-7T23:56:13Z</time></trkpt>
<trkpt lat="50.590219544246793" lon="5.638230415061116"><ele></ele><time>2013-8-7T23:56:16Z</time></trkpt>
<trkpt lat="50.590187609195709" lon="5.638209544122219"><ele></ele><time>2013-8-7T23:56:19Z</time></trkpt>
<trkpt lat="50.590174868702888" lon="5.638202838599682"><ele></ele><time>2013-8-7T23:56:22Z</time></trkpt>
<trkpt lat="50.590158356353641" lon="5.63818515278399"><ele></ele><time>2013-8-7T23:56:25Z</time></trkpt>
<trkpt lat="50.590147292241454" lon="5.638176770880818"><ele></ele><time>2013-8-7T23:56:28Z</time></trkpt>
<trkpt lat="50.590135557577014" lon="5.638174759224057"><ele></ele><time>2013-8-7T23:56:31Z</time></trkpt>
<trkpt lat="50.590129606425762" lon="5.638170652091503"><ele></ele><time>2013-8-7T23:56:34Z</time></trkpt>
<trkpt lat="50.590115692466497" lon="5.638168724253774"><ele></ele><time>2013-8-7T23:56:37Z</time></trkpt>
<trkpt lat="50.590065065771341" lon="5.638153972104192"><ele></ele><time>2013-8-7T23:56:40Z</time></trkpt>
<trkpt lat="50.590052241459489" lon="5.638146679848433"><ele></ele><time>2013-8-7T23:56:43Z</time></trkpt>
<trkpt lat="50.59004838578403" lon="5.638145674020052"><ele></ele><time>2013-8-7T23:56:46Z</time></trkpt>
<trkpt lat="50.59004838578403" lon="5.638145674020052"><ele></ele><time>2013-8-7T23:56:49Z</time></trkpt>
<trkpt lat="50.590049559250474" lon="5.638148188591003"><ele></ele><time>2013-8-7T23:56:52Z</time></trkpt>
<trkpt lat="50.59004838578403" lon="5.638145674020052"><ele></ele><time>2013-8-7T23:56:55Z</time></trkpt>
<trkpt lat="50.590045703575015" lon="5.638141818344593"><ele></ele><time>2013-8-7T23:56:58Z</time></trkpt>
<trkpt lat="50.590012595057487" lon="5.638106614351273"><ele></ele><time>2013-8-7T23:57:1Z</time></trkpt>
<trkpt lat="50.590005973353982" lon="5.638096304610372"><ele></ele><time>2013-8-7T23:57:4Z</time></trkpt>
<trkpt lat="50.590003626421094" lon="5.638091275468469"><ele></ele><time>2013-8-7T23:57:7Z</time></trkpt>
<trkpt lat="50.589998932555318" lon="5.63808741979301"><ele></ele><time>2013-8-7T23:57:10Z</time></trkpt>
<trkpt lat="50.589998932555318" lon="5.63808741979301"><ele></ele><time>2013-8-7T23:57:13Z</time></trkpt>
<trkpt lat="50.589984348043799" lon="5.63806445337832"><ele></ele><time>2013-8-7T23:57:16Z</time></trkpt>
<trkpt lat="50.58997462503612" lon="5.638036541640759"><ele></ele><time>2013-8-7T23:57:19Z</time></trkpt>
<trkpt lat="50.589964650571346" lon="5.638019694015384"><ele></ele><time>2013-8-7T23:57:22Z</time></trkpt>
<trkpt lat="50.589959369972348" lon="5.638005947694182"><ele></ele><time>2013-8-7T23:57:25Z</time></trkpt>
<trkpt lat="50.58995702303946" lon="5.638002343475819"><ele></ele><time>2013-8-7T23:57:28Z</time></trkpt>
<trkpt lat="50.589955430477858" lon="5.638002175837755"><ele></ele><time>2013-8-7T23:57:31Z</time></trkpt>
<trkpt lat="50.589956687763333" lon="5.637997733429074"><ele></ele><time>2013-8-7T23:57:34Z</time></trkpt>
<trkpt lat="50.589949479326606" lon="5.637932941317558"><ele></ele><time>2013-8-7T23:57:37Z</time></trkpt>
<trkpt lat="50.589942438527942" lon="5.637918440625072"><ele></ele><time>2013-8-7T23:57:40Z</time></trkpt>
<trkpt lat="50.589938666671515" lon="5.637913327664137"><ele></ele><time>2013-8-7T23:57:43Z</time></trkpt>
<trkpt lat="50.589935816824436" lon="5.637909136712551"><ele></ele><time>2013-8-7T23:57:46Z</time></trkpt>
<trkpt lat="50.589934224262834" lon="5.637901928275824"><ele></ele><time>2013-8-7T23:57:49Z</time></trkpt>
<trkpt lat="50.589935062453151" lon="5.637873765081167"><ele></ele><time>2013-8-7T23:57:52Z</time></trkpt>
<trkpt lat="50.589927434921265" lon="5.637842584401369"><ele></ele><time>2013-8-7T23:57:55Z</time></trkpt>
<trkpt lat="50.589928105473518" lon="5.637805704027414"><ele></ele><time>2013-8-7T23:57:58Z</time></trkpt>
<trkpt lat="50.589918633922935" lon="5.637782569974661"><ele></ele><time>2013-8-7T23:58:1Z</time></trkpt>
<trkpt lat="50.589894410222769" lon="5.637757843360305"><ele></ele><time>2013-8-7T23:58:4Z</time></trkpt>
<trkpt lat="50.589894410222769" lon="5.637757843360305"><ele></ele><time>2013-8-7T23:58:7Z</time></trkpt>
<trkpt lat="50.589894410222769" lon="5.637757843360305"><ele></ele><time>2013-8-7T23:58:10Z</time></trkpt>
<trkpt lat="50.589892398566008" lon="5.637758178636432"><ele></ele><time>2013-8-7T23:58:13Z</time></trkpt>
<trkpt lat="50.589889129623771" lon="5.637759016826749"><ele></ele><time>2013-8-7T23:58:16Z</time></trkpt>
<trkpt lat="50.589881250634789" lon="5.637757675722241"><ele></ele><time>2013-8-7T23:58:19Z</time></trkpt>
<trkpt lat="50.589855266734958" lon="5.637763207778335"><ele></ele><time>2013-8-7T23:58:22Z</time></trkpt>
<trkpt lat="50.589832551777363" lon="5.637776451185346"><ele></ele><time>2013-8-7T23:58:25Z</time></trkpt>
<trkpt lat="50.589827271178365" lon="5.637779133394361"><ele></ele><time>2013-8-7T23:58:28Z</time></trkpt>
<trkpt lat="50.589819392189384" lon="5.637779301032424"><ele></ele><time>2013-8-7T23:58:31Z</time></trkpt>
<trkpt lat="50.589819392189384" lon="5.637779301032424"><ele></ele><time>2013-8-7T23:58:34Z</time></trkpt>
<trkpt lat="50.589815955609083" lon="5.637774942442775"><ele></ele><time>2013-8-7T23:58:37Z</time></trkpt>
<trkpt lat="50.589793073013425" lon="5.637755412608385"><ele></ele><time>2013-8-7T23:58:40Z</time></trkpt>
<trkpt lat="50.589748229831457" lon="5.63771216198802"><ele></ele><time>2013-8-7T23:58:43Z</time></trkpt>
<trkpt lat="50.589731130748987" lon="5.637687770649791"><ele></ele><time>2013-8-7T23:58:46Z</time></trkpt>
<trkpt lat="50.589724341407418" lon="5.63766916282475"><ele></ele><time>2013-8-7T23:58:49Z</time></trkpt>
<trkpt lat="50.589720318093896" lon="5.637656506150961"><ele></ele><time>2013-8-7T23:58:52Z</time></trkpt>
<trkpt lat="50.589719647541642" lon="5.637650806456804"><ele></ele><time>2013-8-7T23:58:55Z</time></trkpt>
<trkpt lat="50.589721910655499" lon="5.63764083199203"><ele></ele><time>2013-8-7T23:58:58Z</time></trkpt>
<trkpt lat="50.589726017788053" lon="5.637621805071831"><ele></ele><time>2013-8-7T23:59:1Z</time></trkpt>
<trkpt lat="50.589727275073528" lon="5.637602275237441"><ele></ele><time>2013-8-7T23:59:4Z</time></trkpt>
<trkpt lat="50.589728783816099" lon="5.637587439268827"><ele></ele><time>2013-8-7T23:59:7Z</time></trkpt>
<trkpt lat="50.589731968939304" lon="5.637575034052134"><ele></ele><time>2013-8-7T23:59:10Z</time></trkpt>
<trkpt lat="50.589736327528954" lon="5.63756556250155"><ele></ele><time>2013-8-7T23:59:13Z</time></trkpt>
<trkpt lat="50.589738003909588" lon="5.637560449540615"><ele></ele><time>2013-8-7T23:59:16Z</time></trkpt>
<trkpt lat="50.589739177376032" lon="5.637555001303554"><ele></ele><time>2013-8-7T23:59:19Z</time></trkpt>
<trkpt lat="50.58973859064281" lon="5.637550726532936"><ele></ele><time>2013-8-7T23:59:22Z</time></trkpt>
<trkpt lat="50.589737584814429" lon="5.637514349073172"><ele></ele><time>2013-8-7T23:59:25Z</time></trkpt>
<trkpt lat="50.589740686118603" lon="5.637484844774008"><ele></ele><time>2013-8-7T23:59:28Z</time></trkpt>
<trkpt lat="50.589741105213761" lon="5.637457352131605"><ele></ele><time>2013-8-7T23:59:31Z</time></trkpt>
<trkpt lat="50.589740015566349" lon="5.637451149523258"><ele></ele><time>2013-8-7T23:59:34Z</time></trkpt>
<trkpt lat="50.589740015566349" lon="5.637451149523258"><ele></ele><time>2013-8-7T23:59:37Z</time></trkpt>
<trkpt lat="50.589740015566349" lon="5.637451149523258"><ele></ele><time>2013-8-7T23:59:40Z</time></trkpt>
<trkpt lat="50.589740015566349" lon="5.637451149523258"><ele></ele><time>2013-8-7T23:59:43Z</time></trkpt>
<trkpt lat="50.589741189032793" lon="5.63744536601007"><ele></ele><time>2013-8-7T23:59:46Z</time></trkpt>
<trkpt lat="50.589736411347985" lon="5.637423656880856"><ele></ele><time>2013-8-7T23:59:49Z</time></trkpt>
<trkpt lat="50.589739428833127" lon="5.637379819527268"><ele></ele><time>2013-8-7T23:59:52Z</time></trkpt>
<trkpt lat="50.589745128527284" lon="5.637368839234114"><ele></ele><time>2013-8-7T23:59:55Z</time></trkpt>
<trkpt lat="50.589742111042142" lon="5.63733933493495"><ele></ele><time>2013-8-7T23:59:58Z</time></trkpt>
<trkpt lat="50.589740686118603" lon="5.637336233630776"><ele></ele><time>2013-8-8T0:0:1Z</time></trkpt>
<trkpt lat="50.589742111042142" lon="5.63733933493495"><ele></ele><time>2013-8-8T0:0:4Z</time></trkpt>
<trkpt lat="50.589742111042142" lon="5.63733933493495"><ele></ele><time>2013-8-8T0:0:7Z</time></trkpt>
<trkpt lat="50.589742111042142" lon="5.63733933493495"><ele></ele><time>2013-8-8T0:0:10Z</time></trkpt>
<trkpt lat="50.589739931747317" lon="5.637334808707237"><ele></ele><time>2013-8-8T0:0:13Z</time></trkpt>
<trkpt lat="50.589709421619773" lon="5.637287870049477"><ele></ele><time>2013-8-8T0:0:16Z</time></trkpt>
<trkpt lat="50.589692573994398" lon="5.63727437518537"><ele></ele><time>2013-8-8T0:0:19Z</time></trkpt>
<trkpt lat="50.589684527367353" lon="5.637267753481865"><ele></ele><time>2013-8-8T0:0:22Z</time></trkpt>
<trkpt lat="50.589680001139641" lon="5.637261131778359"><ele></ele><time>2013-8-8T0:0:25Z</time></trkpt>
<trkpt lat="50.589680001139641" lon="5.637261131778359"><ele></ele><time>2013-8-8T0:0:28Z</time></trkpt>
<trkpt lat="50.589680001139641" lon="5.637261131778359"><ele></ele><time>2013-8-8T0:0:31Z</time></trkpt>
<trkpt lat="50.589680001139641" lon="5.637261131778359"><ele></ele><time>2013-8-8T0:0:34Z</time></trkpt>
<trkpt lat="50.589680001139641" lon="5.637261131778359"><ele></ele><time>2013-8-8T0:0:37Z</time></trkpt>
<trkpt lat="50.589680001139641" lon="5.637261131778359"><ele></ele><time>2013-8-8T0:0:40Z</time></trkpt>
<trkpt lat="50.589680001139641" lon="5.637261131778359"><ele></ele><time>2013-8-8T0:0:43Z</time></trkpt>
<trkpt lat="50.589680001139641" lon="5.637261131778359"><ele></ele><time>2013-8-8T0:0:46Z</time></trkpt>
<trkpt lat="50.589680001139641" lon="5.637261131778359"><ele></ele><time>2013-8-8T0:0:49Z</time></trkpt>
<trkpt lat="50.589680001139641" lon="5.637261131778359"><ele></ele><time>2013-8-8T0:0:52Z</time></trkpt>
<trkpt lat="50.589680001139641" lon="5.637261131778359"><ele></ele><time>2013-8-8T0:0:55Z</time></trkpt>
<trkpt lat="50.589680001139641" lon="5.637261131778359"><ele></ele><time>2013-8-8T0:0:58Z</time></trkpt>
<trkpt lat="50.589680001139641" lon="5.637261131778359"><ele></ele><time>2013-8-8T0:1:1Z</time></trkpt>
<trkpt lat="50.589680001139641" lon="5.637261131778359"><ele></ele><time>2013-8-8T0:1:4Z</time></trkpt>
<trkpt lat="50.589680001139641" lon="5.637261131778359"><ele></ele><time>2013-8-8T0:1:7Z</time></trkpt>
<trkpt lat="50.589680001139641" lon="5.637261131778359"><ele></ele><time>2013-8-8T0:1:10Z</time></trkpt>
<trkpt lat="50.58967656455934" lon="5.637254593893886"><ele></ele><time>2013-8-8T0:1:13Z</time></trkpt>
<trkpt lat="50.58967656455934" lon="5.637254593893886"><ele></ele><time>2013-8-8T0:1:16Z</time></trkpt>
<trkpt lat="50.58967656455934" lon="5.637254593893886"><ele></ele><time>2013-8-8T0:1:19Z</time></trkpt>
<trkpt lat="50.589675726369023" lon="5.637249229475856"><ele></ele><time>2013-8-8T0:1:22Z</time></trkpt>
<trkpt lat="50.589678743854165" lon="5.637233471497893"><ele></ele><time>2013-8-8T0:1:25Z</time></trkpt>
<trkpt lat="50.589683353900909" lon="5.637221485376358"><ele></ele><time>2013-8-8T0:1:28Z</time></trkpt>
<trkpt lat="50.589687461033463" lon="5.637211594730616"><ele></ele><time>2013-8-8T0:1:31Z</time></trkpt>
<trkpt lat="50.589690562337637" lon="5.637201033532619"><ele></ele><time>2013-8-8T0:1:34Z</time></trkpt>
<trkpt lat="50.589715037494898" lon="5.637136325240135"><ele></ele><time>2013-8-8T0:1:37Z</time></trkpt>
<trkpt lat="50.589730879291892" lon="5.636987797915936"><ele></ele><time>2013-8-8T0:1:40Z</time></trkpt>
<trkpt lat="50.589737500995398" lon="5.63696751371026"><ele></ele><time>2013-8-8T0:1:43Z</time></trkpt>
<trkpt lat="50.589742865413427" lon="5.636942954733968"><ele></ele><time>2013-8-8T0:1:46Z</time></trkpt>
<trkpt lat="50.589744625613093" lon="5.636923843994737"><ele></ele><time>2013-8-8T0:1:49Z</time></trkpt>
<trkpt lat="50.589746134355664" lon="5.636906241998076"><ele></ele><time>2013-8-8T0:1:52Z</time></trkpt>
<trkpt lat="50.589746134355664" lon="5.636906241998076"><ele></ele><time>2013-8-8T0:1:55Z</time></trkpt>
<trkpt lat="50.589746134355664" lon="5.636906241998076"><ele></ele><time>2013-8-8T0:1:58Z</time></trkpt>
<trkpt lat="50.589748062193394" lon="5.636883107945323"><ele></ele><time>2013-8-8T0:2:1Z</time></trkpt>
<trkpt lat="50.589750073850155" lon="5.636864583939314"><ele></ele><time>2013-8-8T0:2:4Z</time></trkpt>
<trkpt lat="50.589750073850155" lon="5.636864583939314"><ele></ele><time>2013-8-8T0:2:7Z</time></trkpt>
<trkpt lat="50.589752588421106" lon="5.636841198429465"><ele></ele><time>2013-8-8T0:2:10Z</time></trkpt>
<trkpt lat="50.589752588421106" lon="5.636841198429465"><ele></ele><time>2013-8-8T0:2:13Z</time></trkpt>
<trkpt lat="50.589752588421106" lon="5.636841198429465"><ele></ele><time>2013-8-8T0:2:16Z</time></trkpt>
<trkpt lat="50.589752923697233" lon="5.636813789606094"><ele></ele><time>2013-8-8T0:2:19Z</time></trkpt>
<trkpt lat="50.589752839878201" lon="5.636785458773375"><ele></ele><time>2013-8-8T0:2:22Z</time></trkpt>
<trkpt lat="50.589754432439804" lon="5.636767521500587"><ele></ele><time>2013-8-8T0:2:25Z</time></trkpt>
<trkpt lat="50.589752253144979" lon="5.63674078322947"><ele></ele><time>2013-8-8T0:2:28Z</time></trkpt>
<trkpt lat="50.589725933969021" lon="5.636671213433146"><ele></ele><time>2013-8-8T0:2:31Z</time></trkpt>
<trkpt lat="50.589688718318939" lon="5.636652521789074"><ele></ele><time>2013-8-8T0:2:34Z</time></trkpt>
<trkpt lat="50.589633984491229" lon="5.636623101308942"><ele></ele><time>2013-8-8T0:2:37Z</time></trkpt>
<trkpt lat="50.589574808254838" lon="5.636607091873884"><ele></ele><time>2013-8-8T0:2:40Z</time></trkpt>
<trkpt lat="50.589537592604756" lon="5.63655897974968"><ele></ele><time>2013-8-8T0:2:43Z</time></trkpt>
<trkpt lat="50.589478416368365" lon="5.63650282099843"><ele></ele><time>2013-8-8T0:2:46Z</time></trkpt>
<trkpt lat="50.589439021423459" lon="5.63650282099843"><ele></ele><time>2013-8-8T0:2:49Z</time></trkpt>
<trkpt lat="50.589401805773377" lon="5.636513466015458"><ele></ele><time>2013-8-8T0:2:52Z</time></trkpt>
<trkpt lat="50.589362327009439" lon="5.636513466015458"><ele></ele><time>2013-8-8T0:2:55Z</time></trkpt>
<trkpt lat="50.589359560981393" lon="5.636513633653522"><ele></ele><time>2013-8-8T0:2:58Z</time></trkpt>
<trkpt lat="50.589307593181729" lon="5.636486727744341"><ele></ele><time>2013-8-8T0:3:1Z</time></trkpt>
<trkpt lat="50.589272556826472" lon="5.636473400518298"><ele></ele><time>2013-8-8T0:3:4Z</time></trkpt>
<trkpt lat="50.589259397238493" lon="5.636446662247181"><ele></ele><time>2013-8-8T0:3:7Z</time></trkpt>
<trkpt lat="50.589257217943668" lon="5.636406512930989"><ele></ele><time>2013-8-8T0:3:10Z</time></trkpt>
<trkpt lat="50.589243052527308" lon="5.636354796588421"><ele></ele><time>2013-8-8T0:3:13Z</time></trkpt>
<trkpt lat="50.589227043092251" lon="5.636306265369058"><ele></ele><time>2013-8-8T0:3:16Z</time></trkpt>
<trkpt lat="50.589225953444839" lon="5.636308360844851"><ele></ele><time>2013-8-8T0:3:19Z</time></trkpt>
<trkpt lat="50.589221762493253" lon="5.636306768283248"><ele></ele><time>2013-8-8T0:3:22Z</time></trkpt>
<trkpt lat="50.589221678674221" lon="5.636303666979074"><ele></ele><time>2013-8-8T0:3:25Z</time></trkpt>
<trkpt lat="50.589221678674221" lon="5.636303666979074"><ele></ele><time>2013-8-8T0:3:28Z</time></trkpt>
<trkpt lat="50.589221678674221" lon="5.636303666979074"><ele></ele><time>2013-8-8T0:3:31Z</time></trkpt>
<trkpt lat="50.589221678674221" lon="5.636303666979074"><ele></ele><time>2013-8-8T0:3:34Z</time></trkpt>
<trkpt lat="50.589222852140665" lon="5.636304169893265"><ele></ele><time>2013-8-8T0:3:37Z</time></trkpt>
<trkpt lat="50.589222852140665" lon="5.636304169893265"><ele></ele><time>2013-8-8T0:3:40Z</time></trkpt>
<trkpt lat="50.589222852140665" lon="5.636304169893265"><ele></ele><time>2013-8-8T0:3:43Z</time></trkpt>
<trkpt lat="50.589219583198428" lon="5.636297464370728"><ele></ele><time>2013-8-8T0:3:46Z</time></trkpt>
<trkpt lat="50.589219583198428" lon="5.636297464370728"><ele></ele><time>2013-8-8T0:3:49Z</time></trkpt>
<trkpt lat="50.589219583198428" lon="5.636297464370728"><ele></ele><time>2013-8-8T0:3:52Z</time></trkpt>
<trkpt lat="50.589218912646174" lon="5.636297380551696"><ele></ele><time>2013-8-8T0:3:55Z</time></trkpt>
<trkpt lat="50.589209692552686" lon="5.636307019740343"><ele></ele><time>2013-8-8T0:3:58Z</time></trkpt>
<trkpt lat="50.589175326749682" lon="5.636321352794766"><ele></ele><time>2013-8-8T0:4:1Z</time></trkpt>
<trkpt lat="50.589171387255192" lon="5.636331411078572"><ele></ele><time>2013-8-8T0:4:4Z</time></trkpt>
<trkpt lat="50.589164262637496" lon="5.636341720819473"><ele></ele><time>2013-8-8T0:4:7Z</time></trkpt>
<trkpt lat="50.589158060029149" lon="5.636346079409122"><ele></ele><time>2013-8-8T0:4:10Z</time></trkpt>
<trkpt lat="50.589158060029149" lon="5.636346079409122"><ele></ele><time>2013-8-8T0:4:13Z</time></trkpt>
<trkpt lat="50.589158060029149" lon="5.636346079409122"><ele></ele><time>2013-8-8T0:4:16Z</time></trkpt>
<trkpt lat="50.589155713096261" lon="5.636352198198438"><ele></ele><time>2013-8-8T0:4:19Z</time></trkpt>
<trkpt lat="50.589147582650185" lon="5.636360580101609"><ele></ele><time>2013-8-8T0:4:22Z</time></trkpt>
<trkpt lat="50.589129896834493" lon="5.636363849043846"><ele></ele><time>2013-8-8T0:4:25Z</time></trkpt>
<trkpt lat="50.589129226282239" lon="5.636372901499271"><ele></ele><time>2013-8-8T0:4:28Z</time></trkpt>
<trkpt lat="50.589121179655194" lon="5.636386480182409"><ele></ele><time>2013-8-8T0:4:31Z</time></trkpt>
<trkpt lat="50.589121179655194" lon="5.636386480182409"><ele></ele><time>2013-8-8T0:4:34Z</time></trkpt>
<trkpt lat="50.589114306494594" lon="5.636401483789086"><ele></ele><time>2013-8-8T0:4:37Z</time></trkpt>
<trkpt lat="50.58910726569593" lon="5.636418415233493"><ele></ele><time>2013-8-8T0:4:40Z</time></trkpt>
<trkpt lat="50.58910726569593" lon="5.636418415233493"><ele></ele><time>2013-8-8T0:4:43Z</time></trkpt>
<trkpt lat="50.589086897671223" lon="5.636427132412791"><ele></ele><time>2013-8-8T0:4:46Z</time></trkpt>
<trkpt lat="50.589068876579404" lon="5.636445321142673"><ele></ele><time>2013-8-8T0:4:49Z</time></trkpt>
<trkpt lat="50.589057477191091" lon="5.63645102083683"><ele></ele><time>2013-8-8T0:4:52Z</time></trkpt>
<trkpt lat="50.589044317603111" lon="5.636459486559033"><ele></ele><time>2013-8-8T0:4:55Z</time></trkpt>
<trkpt lat="50.589033672586083" lon="5.636461498215795"><ele></ele><time>2013-8-8T0:4:58Z</time></trkpt>
<trkpt lat="50.589022524654865" lon="5.636459989473224"><ele></ele><time>2013-8-8T0:5:1Z</time></trkpt>
<trkpt lat="50.589008023962379" lon="5.636458061635494"><ele></ele><time>2013-8-8T0:5:4Z</time></trkpt>
<trkpt lat="50.588997630402446" lon="5.636455127969384"><ele></ele><time>2013-8-8T0:5:7Z</time></trkpt>
<trkpt lat="50.588997630402446" lon="5.636455127969384"><ele></ele><time>2013-8-8T0:5:10Z</time></trkpt>
<trkpt lat="50.588994026184082" lon="5.636446662247181"><ele></ele><time>2013-8-8T0:5:13Z</time></trkpt>
<trkpt lat="50.588993858546019" lon="5.636439369991422"><ele></ele><time>2013-8-8T0:5:16Z</time></trkpt>
<trkpt lat="50.588992517441511" lon="5.636437442153692"><ele></ele><time>2013-8-8T0:5:19Z</time></trkpt>
<trkpt lat="50.588992768898606" lon="5.636431323364377"><ele></ele><time>2013-8-8T0:5:22Z</time></trkpt>
<trkpt lat="50.588992601260543" lon="5.636424114927649"><ele></ele><time>2013-8-8T0:5:25Z</time></trkpt>
<trkpt lat="50.588992601260543" lon="5.636415733024478"><ele></ele><time>2013-8-8T0:5:28Z</time></trkpt>
<trkpt lat="50.588991846889257" lon="5.636408356949687"><ele></ele><time>2013-8-8T0:5:31Z</time></trkpt>
<trkpt lat="50.588994277641177" lon="5.636391509324312"><ele></ele><time>2013-8-8T0:5:34Z</time></trkpt>
<trkpt lat="50.588994277641177" lon="5.636391509324312"><ele></ele><time>2013-8-8T0:5:37Z</time></trkpt>
<trkpt lat="50.588994277641177" lon="5.636391509324312"><ele></ele><time>2013-8-8T0:5:40Z</time></trkpt>
<trkpt lat="50.588994277641177" lon="5.636391509324312"><ele></ele><time>2013-8-8T0:5:43Z</time></trkpt>
<trkpt lat="50.588994277641177" lon="5.636391509324312"><ele></ele><time>2013-8-8T0:5:46Z</time></trkpt>
<trkpt lat="50.588987655937672" lon="5.636371308937669"><ele></ele><time>2013-8-8T0:5:49Z</time></trkpt>
<trkpt lat="50.588976591825485" lon="5.636356137692928"><ele></ele><time>2013-8-8T0:5:52Z</time></trkpt>
<trkpt lat="50.588968964293599" lon="5.636335937306285"><ele></ele><time>2013-8-8T0:5:55Z</time></trkpt>
<trkpt lat="50.588959157466888" lon="5.636315904557705"><ele></ele><time>2013-8-8T0:5:58Z</time></trkpt>
<trkpt lat="50.588946584612131" lon="5.636317916214466"><ele></ele><time>2013-8-8T0:6:1Z</time></trkpt>
<trkpt lat="50.588938789442182" lon="5.636321185156703"><ele></ele><time>2013-8-8T0:6:4Z</time></trkpt>
<trkpt lat="50.588916661217809" lon="5.636301068589091"><ele></ele><time>2013-8-8T0:6:7Z</time></trkpt>
<trkpt lat="50.588911632075906" lon="5.636300649493933"><ele></ele><time>2013-8-8T0:6:10Z</time></trkpt>
<trkpt lat="50.58890693821013" lon="5.636300900951028"><ele></ele><time>2013-8-8T0:6:13Z</time></trkpt>
<trkpt lat="50.588895874097943" lon="5.636313389986753"><ele></ele><time>2013-8-8T0:6:16Z</time></trkpt>
<trkpt lat="50.588891347870231" lon="5.636317497119308"><ele></ele><time>2013-8-8T0:6:19Z</time></trkpt>
<trkpt lat="50.588876763358712" lon="5.636306181550026"><ele></ele><time>2013-8-8T0:6:22Z</time></trkpt>
<trkpt lat="50.588876008987427" lon="5.636311629787087"><ele></ele><time>2013-8-8T0:6:25Z</time></trkpt>
<trkpt lat="50.588875086978078" lon="5.636307774111629"><ele></ele><time>2013-8-8T0:6:28Z</time></trkpt>
<trkpt lat="50.588875086978078" lon="5.636307774111629"><ele></ele><time>2013-8-8T0:6:31Z</time></trkpt>
<trkpt lat="50.588875086978078" lon="5.636307774111629"><ele></ele><time>2013-8-8T0:6:34Z</time></trkpt>
<trkpt lat="50.588875086978078" lon="5.636307774111629"><ele></ele><time>2013-8-8T0:6:37Z</time></trkpt>
<trkpt lat="50.588874164968729" lon="5.636307438835502"><ele></ele><time>2013-8-8T0:6:40Z</time></trkpt>
<trkpt lat="50.588874164968729" lon="5.636307438835502"><ele></ele><time>2013-8-8T0:6:43Z</time></trkpt>
<trkpt lat="50.588874164968729" lon="5.636307438835502"><ele></ele><time>2013-8-8T0:6:46Z</time></trkpt>
<trkpt lat="50.588875338435173" lon="5.636308360844851"><ele></ele><time>2013-8-8T0:6:49Z</time></trkpt>
<trkpt lat="50.588875338435173" lon="5.636308360844851"><ele></ele><time>2013-8-8T0:6:52Z</time></trkpt>
<trkpt lat="50.588875338435173" lon="5.636308360844851"><ele></ele><time>2013-8-8T0:6:55Z</time></trkpt>
<trkpt lat="50.588875338435173" lon="5.636308360844851"><ele></ele><time>2013-8-8T0:6:58Z</time></trkpt>
<trkpt lat="50.588875338435173" lon="5.636308360844851"><ele></ele><time>2013-8-8T0:7:1Z</time></trkpt>
<trkpt lat="50.588874164968729" lon="5.636306684464216"><ele></ele><time>2013-8-8T0:7:4Z</time></trkpt>
<trkpt lat="50.588874164968729" lon="5.636306684464216"><ele></ele><time>2013-8-8T0:7:7Z</time></trkpt>
<trkpt lat="50.588874164968729" lon="5.636306684464216"><ele></ele><time>2013-8-8T0:7:10Z</time></trkpt>
<trkpt lat="50.588850528001785" lon="5.636309115216136"><ele></ele><time>2013-8-8T0:7:13Z</time></trkpt>
<trkpt lat="50.588845917955041" lon="5.636297212913632"><ele></ele><time>2013-8-8T0:7:16Z</time></trkpt>
<trkpt lat="50.588841727003455" lon="5.636288160458207"><ele></ele><time>2013-8-8T0:7:19Z</time></trkpt>
<trkpt lat="50.588837200775743" lon="5.636278102174401"><ele></ele><time>2013-8-8T0:7:22Z</time></trkpt>
<trkpt lat="50.588832339271903" lon="5.636267876252532"><ele></ele><time>2013-8-8T0:7:25Z</time></trkpt>
<trkpt lat="50.588832339271903" lon="5.636267876252532"><ele></ele><time>2013-8-8T0:7:28Z</time></trkpt>
<trkpt lat="50.588832339271903" lon="5.636267876252532"><ele></ele><time>2013-8-8T0:7:31Z</time></trkpt>
<trkpt lat="50.588802415877581" lon="5.636238036677241"><ele></ele><time>2013-8-8T0:7:34Z</time></trkpt>
<trkpt lat="50.588803002610803" lon="5.636232839897275"><ele></ele><time>2013-8-8T0:7:37Z</time></trkpt>
<trkpt lat="50.588803002610803" lon="5.636232839897275"><ele></ele><time>2013-8-8T0:7:40Z</time></trkpt>
<trkpt lat="50.588803002610803" lon="5.636232839897275"><ele></ele><time>2013-8-8T0:7:43Z</time></trkpt>
<trkpt lat="50.588803002610803" lon="5.636232839897275"><ele></ele><time>2013-8-8T0:7:46Z</time></trkpt>
<trkpt lat="50.588803002610803" lon="5.636232839897275"><ele></ele><time>2013-8-8T0:7:49Z</time></trkpt>
<trkpt lat="50.588803002610803" lon="5.636232839897275"><ele></ele><time>2013-8-8T0:7:52Z</time></trkpt>
<trkpt lat="50.588803002610803" lon="5.636232839897275"><ele></ele><time>2013-8-8T0:7:55Z</time></trkpt>
<trkpt lat="50.588804176077247" lon="5.636234600096941"><ele></ele><time>2013-8-8T0:7:58Z</time></trkpt>
<trkpt lat="50.588804176077247" lon="5.636234600096941"><ele></ele><time>2013-8-8T0:8:1Z</time></trkpt>
<trkpt lat="50.588804176077247" lon="5.636234600096941"><ele></ele><time>2013-8-8T0:8:4Z</time></trkpt>
<trkpt lat="50.588804176077247" lon="5.636234600096941"><ele></ele><time>2013-8-8T0:8:7Z</time></trkpt>
<trkpt lat="50.588804176077247" lon="5.636223703622818"><ele></ele><time>2013-8-8T0:8:10Z</time></trkpt>
<trkpt lat="50.588814401999116" lon="5.63622135668993"><ele></ele><time>2013-8-8T0:8:13Z</time></trkpt>
<trkpt lat="50.588814401999116" lon="5.63622135668993"><ele></ele><time>2013-8-8T0:8:16Z</time></trkpt>
<trkpt lat="50.588814401999116" lon="5.63622135668993"><ele></ele><time>2013-8-8T0:8:19Z</time></trkpt>
<trkpt lat="50.588818928226829" lon="5.636229319497943"><ele></ele><time>2013-8-8T0:8:22Z</time></trkpt>
<trkpt lat="50.588818928226829" lon="5.636229319497943"><ele></ele><time>2013-8-8T0:8:25Z</time></trkpt>
<trkpt lat="50.588818928226829" lon="5.636229319497943"><ele></ele><time>2013-8-8T0:8:28Z</time></trkpt>
<trkpt lat="50.588818928226829" lon="5.636229319497943"><ele></ele><time>2013-8-8T0:8:31Z</time></trkpt>
<trkpt lat="50.588819850236177" lon="5.636229235678911"><ele></ele><time>2013-8-8T0:8:34Z</time></trkpt>
<trkpt lat="50.588823119178414" lon="5.636220267042518"><ele></ele><time>2013-8-8T0:8:37Z</time></trkpt>
<trkpt lat="50.588823119178414" lon="5.636220267042518"><ele></ele><time>2013-8-8T0:8:40Z</time></trkpt>
<trkpt lat="50.588823119178414" lon="5.636220267042518"><ele></ele><time>2013-8-8T0:8:43Z</time></trkpt>
<trkpt lat="50.588825047016144" lon="5.636217668652534"><ele></ele><time>2013-8-8T0:8:46Z</time></trkpt>
<trkpt lat="50.588823957368731" lon="5.636199815198779"><ele></ele><time>2013-8-8T0:8:49Z</time></trkpt>
<trkpt lat="50.588817922398448" lon="5.636121109127998"><ele></ele><time>2013-8-8T0:8:52Z</time></trkpt>
<trkpt lat="50.588813228532672" lon="5.636106608435512"><ele></ele><time>2013-8-8T0:8:55Z</time></trkpt>
<trkpt lat="50.588807025924325" lon="5.636097891256213"><ele></ele><time>2013-8-8T0:8:58Z</time></trkpt>
<trkpt lat="50.588807025924325" lon="5.636097891256213"><ele></ele><time>2013-8-8T0:9:1Z</time></trkpt>
<trkpt lat="50.588800404220819" lon="5.63609185628593"><ele></ele><time>2013-8-8T0:9:4Z</time></trkpt>
<trkpt lat="50.588788082823157" lon="5.63608355820179"><ele></ele><time>2013-8-8T0:9:7Z</time></trkpt>
<trkpt lat="50.588777856901288" lon="5.636079451069236"><ele></ele><time>2013-8-8T0:9:10Z</time></trkpt>
<trkpt lat="50.588777856901288" lon="5.636079451069236"><ele></ele><time>2013-8-8T0:9:13Z</time></trkpt>
<trkpt lat="50.588777856901288" lon="5.636079451069236"><ele></ele><time>2013-8-8T0:9:16Z</time></trkpt>
<trkpt lat="50.588770397007465" lon="5.636076014488935"><ele></ele><time>2013-8-8T0:9:19Z</time></trkpt>
<trkpt lat="50.588764864951372" lon="5.636076685041189"><ele></ele><time>2013-8-8T0:9:22Z</time></trkpt>
<trkpt lat="50.588756818324327" lon="5.636069644242525"><ele></ele><time>2013-8-8T0:9:25Z</time></trkpt>
<trkpt lat="50.588744496926665" lon="5.636070314794779"><ele></ele><time>2013-8-8T0:9:28Z</time></trkpt>
<trkpt lat="50.588740389794111" lon="5.636072745546699"><ele></ele><time>2013-8-8T0:9:31Z</time></trkpt>
<trkpt lat="50.588740389794111" lon="5.636072745546699"><ele></ele><time>2013-8-8T0:9:34Z</time></trkpt>
<trkpt lat="50.588733181357384" lon="5.63607232645154"><ele></ele><time>2013-8-8T0:9:37Z</time></trkpt>
<trkpt lat="50.588726559653878" lon="5.6360640283674"><ele></ele><time>2013-8-8T0:9:40Z</time></trkpt>
<trkpt lat="50.588719099760056" lon="5.636057406663895"><ele></ele><time>2013-8-8T0:9:43Z</time></trkpt>
<trkpt lat="50.588719099760056" lon="5.636057406663895"><ele></ele><time>2013-8-8T0:9:46Z</time></trkpt>
<trkpt lat="50.588719099760056" lon="5.636057406663895"><ele></ele><time>2013-8-8T0:9:49Z</time></trkpt>
<trkpt lat="50.588719099760056" lon="5.636057406663895"><ele></ele><time>2013-8-8T0:9:52Z</time></trkpt>
<trkpt lat="50.588719099760056" lon="5.636057406663895"><ele></ele><time>2013-8-8T0:9:55Z</time></trkpt>
<trkpt lat="50.588719099760056" lon="5.636057406663895"><ele></ele><time>2013-8-8T0:9:58Z</time></trkpt>
<trkpt lat="50.588719099760056" lon="5.636057406663895"><ele></ele><time>2013-8-8T0:10:1Z</time></trkpt>
<trkpt lat="50.588719099760056" lon="5.636057406663895"><ele></ele><time>2013-8-8T0:10:4Z</time></trkpt>
<trkpt lat="50.588719099760056" lon="5.636057406663895"><ele></ele><time>2013-8-8T0:10:7Z</time></trkpt>
<trkpt lat="50.588717591017485" lon="5.636055311188102"><ele></ele><time>2013-8-8T0:10:10Z</time></trkpt>
<trkpt lat="50.588717591017485" lon="5.636055311188102"><ele></ele><time>2013-8-8T0:10:13Z</time></trkpt>
<trkpt lat="50.588717591017485" lon="5.636055311188102"><ele></ele><time>2013-8-8T0:10:16Z</time></trkpt>
<trkpt lat="50.588712394237518" lon="5.63605179078877"><ele></ele><time>2013-8-8T0:10:19Z</time></trkpt>
<trkpt lat="50.588700575754046" lon="5.635978700593114"><ele></ele><time>2013-8-8T0:10:22Z</time></trkpt>
<trkpt lat="50.588700575754046" lon="5.635978700593114"><ele></ele><time>2013-8-8T0:10:25Z</time></trkpt>
<trkpt lat="50.588700575754046" lon="5.635978700593114"><ele></ele><time>2013-8-8T0:10:28Z</time></trkpt>
<trkpt lat="50.588700575754046" lon="5.635978700593114"><ele></ele><time>2013-8-8T0:10:31Z</time></trkpt>
<trkpt lat="50.588700575754046" lon="5.635978700593114"><ele></ele><time>2013-8-8T0:10:34Z</time></trkpt>
<trkpt lat="50.588700575754046" lon="5.635978700593114"><ele></ele><time>2013-8-8T0:10:37Z</time></trkpt>
<trkpt lat="50.588700575754046" lon="5.635978700593114"><ele></ele><time>2013-8-8T0:10:40Z</time></trkpt>
<trkpt lat="50.588700575754046" lon="5.635978700593114"><ele></ele><time>2013-8-8T0:10:43Z</time></trkpt>
<trkpt lat="50.588700575754046" lon="5.635978700593114"><ele></ele><time>2013-8-8T0:10:46Z</time></trkpt>
<trkpt lat="50.588699905201793" lon="5.635974258184433"><ele></ele><time>2013-8-8T0:10:49Z</time></trkpt>
<trkpt lat="50.588699905201793" lon="5.635974258184433"><ele></ele><time>2013-8-8T0:10:52Z</time></trkpt>
<trkpt lat="50.588699905201793" lon="5.635974258184433"><ele></ele><time>2013-8-8T0:10:55Z</time></trkpt>
<trkpt lat="50.588699318468571" lon="5.635974928736687"><ele></ele><time>2013-8-8T0:10:58Z</time></trkpt>
<trkpt lat="50.588699569925666" lon="5.635974006727338"><ele></ele><time>2013-8-8T0:11:1Z</time></trkpt>
<trkpt lat="50.588699569925666" lon="5.635974006727338"><ele></ele><time>2013-8-8T0:11:4Z</time></trkpt>
<trkpt lat="50.588699569925666" lon="5.635974006727338"><ele></ele><time>2013-8-8T0:11:7Z</time></trkpt>
<trkpt lat="50.588681800290942" lon="5.635984987020493"><ele></ele><time>2013-8-8T0:11:10Z</time></trkpt>
<trkpt lat="50.588660342618823" lon="5.635946430265903"><ele></ele><time>2013-8-8T0:11:13Z</time></trkpt>
<trkpt lat="50.588653804734349" lon="5.635943748056889"><ele></ele><time>2013-8-8T0:11:16Z</time></trkpt>
<trkpt lat="50.588653804734349" lon="5.635943748056889"><ele></ele><time>2013-8-8T0:11:19Z</time></trkpt>
<trkpt lat="50.588646931573749" lon="5.635945005342364"><ele></ele><time>2013-8-8T0:11:22Z</time></trkpt>
<trkpt lat="50.588646931573749" lon="5.635945005342364"><ele></ele><time>2013-8-8T0:11:25Z</time></trkpt>
<trkpt lat="50.588646931573749" lon="5.635945005342364"><ele></ele><time>2013-8-8T0:11:28Z</time></trkpt>
<trkpt lat="50.588646931573749" lon="5.635945005342364"><ele></ele><time>2013-8-8T0:11:31Z</time></trkpt>
<trkpt lat="50.588646931573749" lon="5.635945005342364"><ele></ele><time>2013-8-8T0:11:34Z</time></trkpt>
<trkpt lat="50.588646931573749" lon="5.635945005342364"><ele></ele><time>2013-8-8T0:11:37Z</time></trkpt>
<trkpt lat="50.588646931573749" lon="5.635945005342364"><ele></ele><time>2013-8-8T0:11:40Z</time></trkpt>
<trkpt lat="50.588646931573749" lon="5.635945005342364"><ele></ele><time>2013-8-8T0:11:43Z</time></trkpt>
<trkpt lat="50.588646931573749" lon="5.635945005342364"><ele></ele><time>2013-8-8T0:11:46Z</time></trkpt>
<trkpt lat="50.588646931573749" lon="5.635945005342364"><ele></ele><time>2013-8-8T0:11:49Z</time></trkpt>
<trkpt lat="50.588645674288273" lon="5.635958416387439"><ele></ele><time>2013-8-8T0:11:52Z</time></trkpt>
<trkpt lat="50.588639555498958" lon="5.635961517691612"><ele></ele><time>2013-8-8T0:11:55Z</time></trkpt>
<trkpt lat="50.588638884946704" lon="5.635966630652547"><ele></ele><time>2013-8-8T0:11:58Z</time></trkpt>
<trkpt lat="50.588638884946704" lon="5.635966630652547"><ele></ele><time>2013-8-8T0:12:1Z</time></trkpt>
<trkpt lat="50.588638884946704" lon="5.635966630652547"><ele></ele><time>2013-8-8T0:12:4Z</time></trkpt>
<trkpt lat="50.588634191080928" lon="5.635968558490276"><ele></ele><time>2013-8-8T0:12:7Z</time></trkpt>
<trkpt lat="50.588634191080928" lon="5.635968558490276"><ele></ele><time>2013-8-8T0:12:10Z</time></trkpt>
<trkpt lat="50.588634191080928" lon="5.635968558490276"><ele></ele><time>2013-8-8T0:12:13Z</time></trkpt>
<trkpt lat="50.588634191080928" lon="5.635968558490276"><ele></ele><time>2013-8-8T0:12:16Z</time></trkpt>
<trkpt lat="50.588634610176086" lon="5.635968223214149"><ele></ele><time>2013-8-8T0:12:19Z</time></trkpt>
<trkpt lat="50.588634610176086" lon="5.635968223214149"><ele></ele><time>2013-8-8T0:12:22Z</time></trkpt>
<trkpt lat="50.588634610176086" lon="5.635968223214149"><ele></ele><time>2013-8-8T0:12:25Z</time></trkpt>
<trkpt lat="50.588624970987439" lon="5.635977610945702"><ele></ele><time>2013-8-8T0:12:28Z</time></trkpt>
<trkpt lat="50.588624970987439" lon="5.635977610945702"><ele></ele><time>2013-8-8T0:12:31Z</time></trkpt>
<trkpt lat="50.588624970987439" lon="5.635977610945702"><ele></ele><time>2013-8-8T0:12:34Z</time></trkpt>
<trkpt lat="50.588624970987439" lon="5.635977610945702"><ele></ele><time>2013-8-8T0:12:37Z</time></trkpt>
<trkpt lat="50.588624970987439" lon="5.635977610945702"><ele></ele><time>2013-8-8T0:12:40Z</time></trkpt>
<trkpt lat="50.588615834712982" lon="5.635977275669575"><ele></ele><time>2013-8-8T0:12:43Z</time></trkpt>
<trkpt lat="50.588592113927007" lon="5.635977108031511"><ele></ele><time>2013-8-8T0:12:46Z</time></trkpt>
<trkpt lat="50.588592113927007" lon="5.635977108031511"><ele></ele><time>2013-8-8T0:12:49Z</time></trkpt>
<trkpt lat="50.588592113927007" lon="5.635977108031511"><ele></ele><time>2013-8-8T0:12:52Z</time></trkpt>
<trkpt lat="50.588592113927007" lon="5.635977108031511"><ele></ele><time>2013-8-8T0:12:55Z</time></trkpt>
<trkpt lat="50.588592113927007" lon="5.635977108031511"><ele></ele><time>2013-8-8T0:12:58Z</time></trkpt>
<trkpt lat="50.588592113927007" lon="5.635977108031511"><ele></ele><time>2013-8-8T0:13:1Z</time></trkpt>
<trkpt lat="50.588582055643201" lon="5.636013066396117"><ele></ele><time>2013-8-8T0:13:4Z</time></trkpt>
<trkpt lat="50.588574260473251" lon="5.636032847687602"><ele></ele><time>2013-8-8T0:13:7Z</time></trkpt>
<trkpt lat="50.588546600192785" lon="5.636062268167734"><ele></ele><time>2013-8-8T0:13:10Z</time></trkpt>
<trkpt lat="50.588546600192785" lon="5.636062268167734"><ele></ele><time>2013-8-8T0:13:13Z</time></trkpt>
<trkpt lat="50.588546600192785" lon="5.636062268167734"><ele></ele><time>2013-8-8T0:13:16Z</time></trkpt>
<trkpt lat="50.588546600192785" lon="5.636062268167734"><ele></ele><time>2013-8-8T0:13:19Z</time></trkpt>
<trkpt lat="50.588546600192785" lon="5.636062268167734"><ele></ele><time>2013-8-8T0:13:22Z</time></trkpt>
<trkpt lat="50.588546600192785" lon="5.636062268167734"><ele></ele><time>2013-8-8T0:13:25Z</time></trkpt>
<trkpt lat="50.588545426726341" lon="5.636064866557717"><ele></ele><time>2013-8-8T0:13:28Z</time></trkpt>
<trkpt lat="50.588547606021166" lon="5.636065201833844"><ele></ele><time>2013-8-8T0:13:31Z</time></trkpt>
<trkpt lat="50.588547606021166" lon="5.636065201833844"><ele></ele><time>2013-8-8T0:13:34Z</time></trkpt>
<trkpt lat="50.588547606021166" lon="5.636065201833844"><ele></ele><time>2013-8-8T0:13:37Z</time></trkpt>
<trkpt lat="50.588547606021166" lon="5.636065201833844"><ele></ele><time>2013-8-8T0:13:40Z</time></trkpt>
<trkpt lat="50.588545007631183" lon="5.636068554595113"><ele></ele><time>2013-8-8T0:13:43Z</time></trkpt>
<trkpt lat="50.588545007631183" lon="5.636068554595113"><ele></ele><time>2013-8-8T0:13:46Z</time></trkpt>
<trkpt lat="50.588545007631183" lon="5.636068554595113"><ele></ele><time>2013-8-8T0:13:49Z</time></trkpt>
<trkpt lat="50.588545929640532" lon="5.636074924841523"><ele></ele><time>2013-8-8T0:13:52Z</time></trkpt>
<trkpt lat="50.588550204411149" lon="5.636099902912974"><ele></ele><time>2013-8-8T0:13:55Z</time></trkpt>
<trkpt lat="50.588531261309981" lon="5.636200485751033"><ele></ele><time>2013-8-8T0:13:58Z</time></trkpt>
<trkpt lat="50.588527740910649" lon="5.636214567348361"><ele></ele><time>2013-8-8T0:14:1Z</time></trkpt>
<trkpt lat="50.58852237649262" lon="5.636227391660213"><ele></ele><time>2013-8-8T0:14:4Z</time></trkpt>
<trkpt lat="50.58852237649262" lon="5.636227391660213"><ele></ele><time>2013-8-8T0:14:7Z</time></trkpt>
<trkpt lat="50.588517934083939" lon="5.636228397488594"><ele></ele><time>2013-8-8T0:14:10Z</time></trkpt>
<trkpt lat="50.58850871399045" lon="5.63622965477407"><ele></ele><time>2013-8-8T0:14:13Z</time></trkpt>
<trkpt lat="50.588501086458564" lon="5.636235270649195"><ele></ele><time>2013-8-8T0:14:16Z</time></trkpt>
<trkpt lat="50.588501086458564" lon="5.636235270649195"><ele></ele><time>2013-8-8T0:14:19Z</time></trkpt>
<trkpt lat="50.588501086458564" lon="5.636235270649195"><ele></ele><time>2013-8-8T0:14:22Z</time></trkpt>
<trkpt lat="50.588501086458564" lon="5.636235270649195"><ele></ele><time>2013-8-8T0:14:25Z</time></trkpt>
<trkpt lat="50.588501086458564" lon="5.636235270649195"><ele></ele><time>2013-8-8T0:14:28Z</time></trkpt>
<trkpt lat="50.588491195812821" lon="5.636231498792768"><ele></ele><time>2013-8-8T0:14:31Z</time></trkpt>
<trkpt lat="50.588491195812821" lon="5.636231498792768"><ele></ele><time>2013-8-8T0:14:34Z</time></trkpt>
<trkpt lat="50.588491195812821" lon="5.636231498792768"><ele></ele><time>2013-8-8T0:14:37Z</time></trkpt>
<trkpt lat="50.588491195812821" lon="5.636231498792768"><ele></ele><time>2013-8-8T0:14:40Z</time></trkpt>
<trkpt lat="50.588491195812821" lon="5.636231498792768"><ele></ele><time>2013-8-8T0:14:43Z</time></trkpt>
<trkpt lat="50.588491195812821" lon="5.636231498792768"><ele></ele><time>2013-8-8T0:14:46Z</time></trkpt>
<trkpt lat="50.588479712605476" lon="5.63619839027524"><ele></ele><time>2013-8-8T0:14:49Z</time></trkpt>
<trkpt lat="50.588476527482271" lon="5.636184895411134"><ele></ele><time>2013-8-8T0:14:52Z</time></trkpt>
<trkpt lat="50.588466301560402" lon="5.636170897632837"><ele></ele><time>2013-8-8T0:14:55Z</time></trkpt>
<trkpt lat="50.588458338752389" lon="5.636168802157044"><ele></ele><time>2013-8-8T0:14:58Z</time></trkpt>
<trkpt lat="50.588458338752389" lon="5.636168802157044"><ele></ele><time>2013-8-8T0:15:1Z</time></trkpt>
<trkpt lat="50.588458338752389" lon="5.636168802157044"><ele></ele><time>2013-8-8T0:15:4Z</time></trkpt>
<trkpt lat="50.588458254933357" lon="5.636173831298947"><ele></ele><time>2013-8-8T0:15:7Z</time></trkpt>
<trkpt lat="50.588458254933357" lon="5.636173831298947"><ele></ele><time>2013-8-8T0:15:10Z</time></trkpt>
<trkpt lat="50.588458254933357" lon="5.636173831298947"><ele></ele><time>2013-8-8T0:15:13Z</time></trkpt>
<trkpt lat="50.588458254933357" lon="5.636173831298947"><ele></ele><time>2013-8-8T0:15:16Z</time></trkpt>
<trkpt lat="50.588458254933357" lon="5.636173831298947"><ele></ele><time>2013-8-8T0:15:19Z</time></trkpt>
<trkpt lat="50.588441323488951" lon="5.63614608719945"><ele></ele><time>2013-8-8T0:15:22Z</time></trkpt>
<trkpt lat="50.588438976556063" lon="5.636150948703289"><ele></ele><time>2013-8-8T0:15:25Z</time></trkpt>
<trkpt lat="50.588438976556063" lon="5.636150948703289"><ele></ele><time>2013-8-8T0:15:28Z</time></trkpt>
<trkpt lat="50.588432690128684" lon="5.636179363355041"><ele></ele><time>2013-8-8T0:15:31Z</time></trkpt>
<trkpt lat="50.588427912443876" lon="5.636222613975406"><ele></ele><time>2013-8-8T0:15:34Z</time></trkpt>
<trkpt lat="50.588429924100637" lon="5.636234097182751"><ele></ele><time>2013-8-8T0:15:37Z</time></trkpt>
<trkpt lat="50.588429924100637" lon="5.636234097182751"><ele></ele><time>2013-8-8T0:15:40Z</time></trkpt>
<trkpt lat="50.588429924100637" lon="5.636234097182751"><ele></ele><time>2013-8-8T0:15:43Z</time></trkpt>
<trkpt lat="50.588429924100637" lon="5.636234097182751"><ele></ele><time>2013-8-8T0:15:46Z</time></trkpt>
<trkpt lat="50.588429924100637" lon="5.636234097182751"><ele></ele><time>2013-8-8T0:15:49Z</time></trkpt>
<trkpt lat="50.588438138365746" lon="5.636223200708628"><ele></ele><time>2013-8-8T0:15:52Z</time></trkpt>
<trkpt lat="50.588438138365746" lon="5.636223200708628"><ele></ele><time>2013-8-8T0:15:55Z</time></trkpt>
<trkpt lat="50.58844325132668" lon="5.636205011978745"><ele></ele><time>2013-8-8T0:15:58Z</time></trkpt>
<trkpt lat="50.588446604087949" lon="5.636188834905624"><ele></ele><time>2013-8-8T0:16:1Z</time></trkpt>
<trkpt lat="50.588446604087949" lon="5.636188834905624"><ele></ele><time>2013-8-8T0:16:4Z</time></trkpt>
<trkpt lat="50.588446604087949" lon="5.636188834905624"><ele></ele><time>2013-8-8T0:16:7Z</time></trkpt>
<trkpt lat="50.588446604087949" lon="5.636188834905624"><ele></ele><time>2013-8-8T0:16:10Z</time></trkpt>
<trkpt lat="50.588437300175428" lon="5.6361641921103"><ele></ele><time>2013-8-8T0:16:13Z</time></trkpt>
<trkpt lat="50.588446352630854" lon="5.636164024472237"><ele></ele><time>2013-8-8T0:16:16Z</time></trkpt>
<trkpt lat="50.588446352630854" lon="5.636164024472237"><ele></ele><time>2013-8-8T0:16:19Z</time></trkpt>
<trkpt lat="50.588434701785445" lon="5.636148182675242"><ele></ele><time>2013-8-8T0:16:22Z</time></trkpt>
<trkpt lat="50.588429002091289" lon="5.636141812428832"><ele></ele><time>2013-8-8T0:16:25Z</time></trkpt>
<trkpt lat="50.588429002091289" lon="5.636141812428832"><ele></ele><time>2013-8-8T0:16:28Z</time></trkpt>
<trkpt lat="50.588429002091289" lon="5.636141812428832"><ele></ele><time>2013-8-8T0:16:31Z</time></trkpt>
<trkpt lat="50.588440150022507" lon="5.636140471324325"><ele></ele><time>2013-8-8T0:16:34Z</time></trkpt>
<trkpt lat="50.588440150022507" lon="5.636140471324325"><ele></ele><time>2013-8-8T0:16:37Z</time></trkpt>
<trkpt lat="50.588447526097298" lon="5.63614122569561"><ele></ele><time>2013-8-8T0:16:40Z</time></trkpt>
<trkpt lat="50.588447526097298" lon="5.63614122569561"><ele></ele><time>2013-8-8T0:16:43Z</time></trkpt>
<trkpt lat="50.588447526097298" lon="5.63614122569561"><ele></ele><time>2013-8-8T0:16:46Z</time></trkpt>
<trkpt lat="50.588478036224842" lon="5.636142231523991"><ele></ele><time>2013-8-8T0:16:49Z</time></trkpt>
<trkpt lat="50.588478036224842" lon="5.636142231523991"><ele></ele><time>2013-8-8T0:16:52Z</time></trkpt>
<trkpt lat="50.588478036224842" lon="5.636142231523991"><ele></ele><time>2013-8-8T0:16:55Z</time></trkpt>
<trkpt lat="50.588478036224842" lon="5.636142231523991"><ele></ele><time>2013-8-8T0:16:58Z</time></trkpt>
<trkpt lat="50.588478036224842" lon="5.636142231523991"><ele></ele><time>2013-8-8T0:17:1Z</time></trkpt>
<trkpt lat="50.588478036224842" lon="5.636142231523991"><ele></ele><time>2013-8-8T0:17:4Z</time></trkpt>
<trkpt lat="50.588478036224842" lon="5.636142231523991"><ele></ele><time>2013-8-8T0:17:7Z</time></trkpt>
<trkpt lat="50.588473845273256" lon="5.636141477152705"><ele></ele><time>2013-8-8T0:17:10Z</time></trkpt>
<trkpt lat="50.588473845273256" lon="5.636141477152705"><ele></ele><time>2013-8-8T0:17:13Z</time></trkpt>
<trkpt lat="50.588473845273256" lon="5.636141477152705"><ele></ele><time>2013-8-8T0:17:16Z</time></trkpt>
<trkpt lat="50.588473845273256" lon="5.636141477152705"><ele></ele><time>2013-8-8T0:17:19Z</time></trkpt>
<trkpt lat="50.58846328407526" lon="5.636141812428832"><ele></ele><time>2013-8-8T0:17:22Z</time></trkpt>
<trkpt lat="50.58846328407526" lon="5.636141812428832"><ele></ele><time>2013-8-8T0:17:25Z</time></trkpt>
<trkpt lat="50.58846328407526" lon="5.636141812428832"><ele></ele><time>2013-8-8T0:17:28Z</time></trkpt>
<trkpt lat="50.588460685685277" lon="5.636149356141686"><ele></ele><time>2013-8-8T0:17:31Z</time></trkpt>
<trkpt lat="50.588441407307982" lon="5.636149272322655"><ele></ele><time>2013-8-8T0:17:34Z</time></trkpt>
<trkpt lat="50.588441407307982" lon="5.636149272322655"><ele></ele><time>2013-8-8T0:17:37Z</time></trkpt>
<trkpt lat="50.588441407307982" lon="5.636149272322655"><ele></ele><time>2013-8-8T0:17:40Z</time></trkpt>
<trkpt lat="50.588441407307982" lon="5.636149272322655"><ele></ele><time>2013-8-8T0:17:43Z</time></trkpt>
<trkpt lat="50.588441407307982" lon="5.636149272322655"><ele></ele><time>2013-8-8T0:17:46Z</time></trkpt>
<trkpt lat="50.588441407307982" lon="5.636149272322655"><ele></ele><time>2013-8-8T0:17:49Z</time></trkpt>
<trkpt lat="50.588437970727682" lon="5.636150445789099"><ele></ele><time>2013-8-8T0:17:52Z</time></trkpt>
<trkpt lat="50.588437970727682" lon="5.636150445789099"><ele></ele><time>2013-8-8T0:17:55Z</time></trkpt>
<trkpt lat="50.588437970727682" lon="5.636150445789099"><ele></ele><time>2013-8-8T0:17:58Z</time></trkpt>
<trkpt lat="50.588437970727682" lon="5.636150445789099"><ele></ele><time>2013-8-8T0:18:1Z</time></trkpt>
<trkpt lat="50.588437970727682" lon="5.636150445789099"><ele></ele><time>2013-8-8T0:18:4Z</time></trkpt>
<trkpt lat="50.588437970727682" lon="5.636150445789099"><ele></ele><time>2013-8-8T0:18:7Z</time></trkpt>
<trkpt lat="50.588437970727682" lon="5.636150445789099"><ele></ele><time>2013-8-8T0:18:10Z</time></trkpt>
<trkpt lat="50.588429505005479" lon="5.636144243180752"><ele></ele><time>2013-8-8T0:18:13Z</time></trkpt>
<trkpt lat="50.588424308225513" lon="5.636141309514642"><ele></ele><time>2013-8-8T0:18:16Z</time></trkpt>
<trkpt lat="50.588412657380104" lon="5.636133681982756"><ele></ele><time>2013-8-8T0:18:19Z</time></trkpt>
<trkpt lat="50.588400671258569" lon="5.636122198775411"><ele></ele><time>2013-8-8T0:18:22Z</time></trkpt>
<trkpt lat="50.588400671258569" lon="5.636122198775411"><ele></ele><time>2013-8-8T0:18:25Z</time></trkpt>
<trkpt lat="50.588384745642543" lon="5.636092443019152"><ele></ele><time>2013-8-8T0:18:28Z</time></trkpt>
<trkpt lat="50.588365970179439" lon="5.636050701141357"><ele></ele><time>2013-8-8T0:18:31Z</time></trkpt>
<trkpt lat="50.588364461436868" lon="5.636037793010473"><ele></ele><time>2013-8-8T0:18:34Z</time></trkpt>
<trkpt lat="50.588364461436868" lon="5.636037793010473"><ele></ele><time>2013-8-8T0:18:37Z</time></trkpt>
<trkpt lat="50.588364461436868" lon="5.636037793010473"><ele></ele><time>2013-8-8T0:18:40Z</time></trkpt>
<trkpt lat="50.588364461436868" lon="5.636037793010473"><ele></ele><time>2013-8-8T0:18:43Z</time></trkpt>
<trkpt lat="50.588364461436868" lon="5.636037793010473"><ele></ele><time>2013-8-8T0:18:46Z</time></trkpt>
<trkpt lat="50.588364461436868" lon="5.636037793010473"><ele></ele><time>2013-8-8T0:18:49Z</time></trkpt>
<trkpt lat="50.588364461436868" lon="5.636037793010473"><ele></ele><time>2013-8-8T0:18:52Z</time></trkpt>
<trkpt lat="50.588354738429189" lon="5.636043660342693"><ele></ele><time>2013-8-8T0:18:55Z</time></trkpt>
<trkpt lat="50.588354738429189" lon="5.636043660342693"><ele></ele><time>2013-8-8T0:18:58Z</time></trkpt>
<trkpt lat="50.588354738429189" lon="5.636043660342693"><ele></ele><time>2013-8-8T0:19:1Z</time></trkpt>
<trkpt lat="50.588354570791125" lon="5.636043408885598"><ele></ele><time>2013-8-8T0:19:4Z</time></trkpt>
<trkpt lat="50.588354570791125" lon="5.636043408885598"><ele></ele><time>2013-8-8T0:19:7Z</time></trkpt>
<trkpt lat="50.588342249393463" lon="5.636048102751374"><ele></ele><time>2013-8-8T0:19:10Z</time></trkpt>
<trkpt lat="50.588342249393463" lon="5.636048102751374"><ele></ele><time>2013-8-8T0:19:13Z</time></trkpt>
</trkseg></trk></gpx>